Time;durP1;ratioP1;P1;durP2;ratioP2;P2;SDS_P1;SDS_P2;PMS_P1;PMS_P2;Temp;Humidity;BMP_temperature;BMP_pressure;BME280_temperature;BME280_humidity;BME280_pressure;Samples;Min_cycle;Max_cycle;Signal;HPM_P1;HPM_P2
2021/12/22 00:01:24;;;;;;;0.70;0.70;;;;;;;;;;4953303;28;20432;-60
2021/12/22 00:03:51;;;;;;;0.77;0.77;;;;;;;;;;4953860;28;20179;-60
2021/12/22 00:06:23;;;;;;;0.70;0.70;;;;;;;;;;4953718;28;20629;-60
2021/12/22 00:08:49;;;;;;;0.70;0.70;;;;;;;;;;4953922;28;20176;-61
2021/12/22 00:11:15;;;;;;;0.60;0.60;;;;;;;;;;4953162;28;20266;-60
2021/12/22 00:13:41;;;;;;;0.70;0.70;;;;;;;;;;4952438;28;20235;-59
2021/12/22 00:16:07;;;;;;;0.70;0.70;;;;;;;;;;4953634;28;20234;-61
2021/12/22 00:18:34;;;;;;;0.70;0.70;;;;;;;;;;4953787;28;20537;-58
2021/12/22 00:21:00;;;;;;;0.70;0.70;;;;;;;;;;4952968;28;20469;-61
2021/12/22 00:23:26;;;;;;;0.70;0.70;;;;;;;;;;4953700;28;20187;-60
2021/12/22 00:25:52;;;;;;;0.80;0.80;;;;;;;;;;4953471;28;20221;-61
2021/12/22 00:28:18;;;;;;;0.70;0.70;;;;;;;;;;4953479;28;20187;-60
2021/12/22 00:30:45;;;;;;;0.70;0.70;;;;;;;;;;4952883;28;20234;-59
2021/12/22 00:33:12;;;;;;;0.75;0.75;;;;;;;;;;4953506;28;20418;-60
2021/12/22 00:35:41;;;;;;;0.60;0.60;;;;;;;;;;4953285;28;20210;-61
2021/12/22 00:38:08;;;;;;;0.70;0.70;;;;;;;;;;4953460;28;20466;-60
2021/12/22 00:40:34;;;;;;;0.70;0.70;;;;;;;;;;4952736;28;20295;-60
2021/12/22 00:43:00;;;;;;;0.70;0.70;;;;;;;;;;4953482;28;20187;-60
2021/12/22 00:45:28;;;;;;;0.73;0.73;;;;;;;;;;4953338;28;20209;-58
2021/12/22 00:47:55;;;;;;;0.60;0.60;;;;;;;;;;4955653;28;20647;-59
2021/12/22 00:50:22;;;;;;;0.70;0.70;;;;;;;;;;4959236;28;20179;-61
2021/12/22 00:52:48;;;;;;;0.80;0.80;;;;;;;;;;4959819;28;20171;-60
2021/12/22 00:55:18;;;;;;;0.70;0.70;;;;;;;;;;4959599;28;20205;-59
2021/12/22 00:57:44;;;;;;;0.60;0.60;;;;;;;;;;4959702;28;20413;-61
2021/12/22 01:00:10;;;;;;;0.70;0.70;;;;;;;;;;4959203;28;20175;-60
2021/12/22 01:02:36;;;;;;;0.80;0.80;;;;;;;;;;4959633;28;20438;-60
2021/12/22 01:05:02;;;;;;;0.60;0.60;;;;;;;;;;4959592;28;20195;-60
2021/12/22 01:07:28;;;;;;;0.70;0.70;;;;;;;;;;4959629;28;20196;-61
2021/12/22 01:09:54;;;;;;;0.70;0.70;;;;;;;;;;4959501;28;20188;-58
2021/12/22 01:12:20;;;;;;;0.70;0.70;;;;;;;;;;4958968;28;20832;-61
2021/12/22 01:14:46;;;;;;;0.68;0.68;;;;;;;;;;4959558;28;20795;-60
2021/12/22 01:17:14;;;;;;;0.60;0.60;;;;;;;;;;4959625;28;20180;-60
2021/12/22 01:25:03;;;;;;;0.70;0.70;;;;;;;;;;4959410;29;20548;-57
2021/12/22 01:27:34;;;;;;;0.70;0.70;;;;;;;;;;4959551;28;20670;-60
2021/12/22 01:30:01;;;;;;;0.70;0.70;;;;;;;;;;4959273;28;20219;-61
2021/12/22 01:32:27;;;;;;;0.80;0.80;;;;;;;;;;4959287;28;20597;-61
2021/12/22 01:34:53;;;;;;;0.80;0.80;;;;;;;;;;4959148;28;20290;-60
2021/12/22 01:37:19;;;;;;;0.70;0.70;;;;;;;;;;4959248;28;20191;-60
2021/12/22 01:39:45;;;;;;;0.70;0.70;;;;;;;;;;4959313;28;20180;-60
2021/12/22 01:42:11;;;;;;;0.70;0.70;;;;;;;;;;4958668;28;20521;-61
2021/12/22 01:50:09;;;;;;;0.70;0.70;;;;;;;;;;4958748;29;20186;-60
2021/12/22 01:52:35;;;;;;;0.70;0.70;;;;;;;;;;4959078;28;20253;-58
2021/12/22 01:55:05;;;;;;;0.60;0.60;;;;;;;;;;4959181;28;20656;-60
2021/12/22 01:57:32;;;;;;;0.70;0.70;;;;;;;;;;4959121;28;20902;-60
2021/12/22 02:00:01;;;;;;;0.70;0.70;;;;;;;;;;4956497;28;20257;-59
2021/12/22 02:02:27;;;;;;;0.70;0.70;;;;;;;;;;4954683;28;20846;-60
2021/12/22 02:04:53;;;;;;;0.73;0.73;;;;;;;;;;4956004;28;20287;-61
2021/12/22 02:07:19;;;;;;;0.80;0.80;;;;;;;;;;4955881;28;20465;-60
2021/12/22 02:12:25;;;;;;;0.70;0.70;;;;;;;;;;4955289;28;20176;-60
2021/12/22 02:14:51;;;;;;;0.60;0.60;;;;;;;;;;4955869;28;20234;-60
2021/12/22 02:17:17;;;;;;;0.60;0.60;;;;;;;;;;4955804;28;20540;-60
2021/12/22 02:19:47;;;;;;;0.70;0.70;;;;;;;;;;4955794;28;20176;-60
2021/12/22 02:22:16;;;;;;;0.70;0.70;;;;;;;;;;4955116;28;20179;-58
2021/12/22 02:24:46;;;;;;;0.60;0.60;;;;;;;;;;4955636;28;20198;-59
2021/12/22 02:27:20;;;;;;;0.70;0.70;;;;;;;;;;4955833;28;20203;-60
2021/12/22 02:29:48;;;;;;;0.70;0.70;;;;;;;;;;4955705;28;20559;-61
2021/12/22 02:32:34;;;;;;;0.68;0.68;;;;;;;;;;4954979;28;20179;-61
2021/12/22 02:35:03;;;;;;;0.70;0.70;;;;;;;;;;4953522;28;20723;-61
2021/12/22 02:37:30;;;;;;;0.70;0.70;;;;;;;;;;4955361;28;20198;-60
2021/12/22 02:40:10;;;;;;;0.70;0.70;;;;;;;;;;4955518;28;20179;-61
2021/12/22 02:42:36;;;;;;;0.60;0.60;;;;;;;;;;4953416;28;20208;-60
2021/12/22 02:45:09;;;;;;;0.60;0.60;;;;;;;;;;4955362;28;20219;-60
2021/12/22 02:47:35;;;;;;;0.70;0.70;;;;;;;;;;4955474;28;20607;-60
2021/12/22 02:50:01;;;;;;;0.70;0.70;;;;;;;;;;4955170;28;20187;-61
2021/12/22 02:52:34;;;;;;;0.80;0.80;;;;;;;;;;4954595;28;20184;-61
2021/12/22 02:55:01;;;;;;;0.70;0.70;;;;;;;;;;4955333;28;20563;-61
2021/12/22 02:57:32;;;;;;;0.70;0.70;;;;;;;;;;4955109;28;20175;-60
2021/12/22 03:03:05;;;;;;;0.77;0.77;;;;;;;;;;4955091;29;20187;-60
2021/12/22 03:05:31;;;;;;;0.70;0.70;;;;;;;;;;4954810;28;20248;-60
2021/12/22 03:07:57;;;;;;;0.60;0.60;;;;;;;;;;4954893;28;20179;-60
2021/12/22 03:10:23;;;;;;;0.70;0.70;;;;;;;;;;4954197;28;20215;-59
2021/12/22 03:12:52;;;;;;;0.70;0.70;;;;;;;;;;4954028;28;20643;-61
2021/12/22 03:15:18;;;;;;;0.70;0.70;;;;;;;;;;4954799;28;20207;-60
2021/12/22 03:17:45;;;;;;;0.70;0.70;;;;;;;;;;4954629;28;20529;-60
2021/12/22 03:20:13;;;;;;;0.70;0.70;;;;;;;;;;4952814;28;20180;-60
2021/12/22 03:22:42;;;;;;;0.60;0.60;;;;;;;;;;4954143;28;20253;-60
2021/12/22 03:25:14;;;;;;;0.70;0.70;;;;;;;;;;4954466;28;20246;-60
2021/12/22 03:27:40;;;;;;;0.60;0.60;;;;;;;;;;4954646;28;20325;-60
2021/12/22 03:30:07;;;;;;;0.68;0.68;;;;;;;;;;4954141;28;20404;-60
2021/12/22 03:32:33;;;;;;;0.70;0.70;;;;;;;;;;4954480;28;20186;-60
2021/12/22 03:34:59;;;;;;;0.60;0.60;;;;;;;;;;4954334;28;20215;-60
2021/12/22 03:37:25;;;;;;;0.70;0.70;;;;;;;;;;4954432;28;20187;-61
2021/12/22 03:39:51;;;;;;;0.70;0.70;;;;;;;;;;4953107;28;20472;-60
2021/12/22 03:42:17;;;;;;;0.63;0.63;;;;;;;;;;4953712;28;20188;-59
2021/12/22 03:44:43;;;;;;;0.70;0.70;;;;;;;;;;4954184;28;21044;-58
2021/12/22 03:47:09;;;;;;;0.60;0.60;;;;;;;;;;4954106;28;21006;-60
2021/12/22 03:49:35;;;;;;;0.60;0.60;;;;;;;;;;4954189;28;20763;-60
2021/12/22 03:52:02;;;;;;;0.60;0.60;;;;;;;;;;4953502;28;20171;-60
2021/12/22 03:54:28;;;;;;;0.70;0.70;;;;;;;;;;4954018;28;20206;-60
2021/12/22 03:56:54;;;;;;;0.60;0.60;;;;;;;;;;4952938;28;20184;-61
2021/12/22 03:59:21;;;;;;;0.70;0.70;;;;;;;;;;4954019;28;20226;-60
2021/12/22 04:01:47;;;;;;;0.70;0.70;;;;;;;;;;4953484;28;20175;-60
2021/12/22 04:04:16;;;;;;;0.70;0.70;;;;;;;;;;4954195;28;20199;-60
2021/12/22 04:06:44;;;;;;;0.70;0.70;;;;;;;;;;4953917;28;20227;-60
2021/12/22 04:09:10;;;;;;;0.70;0.70;;;;;;;;;;4952715;28;20175;-60
2021/12/22 04:11:36;;;;;;;0.70;0.70;;;;;;;;;;4953527;28;20190;-60
2021/12/22 04:14:02;;;;;;;0.70;0.70;;;;;;;;;;4953846;28;20552;-61
2021/12/22 04:16:28;;;;;;;0.70;0.70;;;;;;;;;;4954058;28;20512;-60
2021/12/22 04:18:54;;;;;;;0.70;0.70;;;;;;;;;;4952713;28;20190;-60
2021/12/22 04:21:20;;;;;;;0.70;0.70;;;;;;;;;;4953293;28;20180;-59
2021/12/22 04:23:46;;;;;;;0.80;0.80;;;;;;;;;;4953727;28;20411;-61
2021/12/22 04:26:13;;;;;;;0.80;0.80;;;;;;;;;;4953640;28;20203;-61
2021/12/22 04:28:39;;;;;;;0.80;0.80;;;;;;;;;;4954793;28;20175;-61
2021/12/22 04:31:05;;;;;;;0.70;0.70;;;;;;;;;;4953049;28;20651;-61
2021/12/22 04:33:31;;;;;;;0.70;0.70;;;;;;;;;;4953711;28;20263;-61
2021/12/22 04:35:57;;;;;;;0.70;0.70;;;;;;;;;;4953664;28;20283;-60
2021/12/22 04:38:23;;;;;;;0.80;0.80;;;;;;;;;;4954009;28;20470;-60
2021/12/22 04:40:49;;;;;;;0.70;0.70;;;;;;;;;;4953738;28;20582;-58
2021/12/22 04:43:15;;;;;;;0.68;0.68;;;;;;;;;;4953895;28;20191;-60
2021/12/22 04:45:42;;;;;;;0.70;0.70;;;;;;;;;;4953728;28;20211;-61
2021/12/22 04:48:08;;;;;;;0.73;0.73;;;;;;;;;;4953571;28;20183;-60
2021/12/22 04:50:35;;;;;;;0.70;0.70;;;;;;;;;;4952951;28;20270;-59
2021/12/22 04:53:10;;;;;;;0.60;0.60;;;;;;;;;;4953776;28;20261;-60
2021/12/22 04:55:36;;;;;;;0.70;0.70;;;;;;;;;;4952180;28;20209;-60
2021/12/22 04:58:02;;;;;;;0.60;0.60;;;;;;;;;;4953449;28;20265;-61
2021/12/22 05:00:30;;;;;;;0.60;0.60;;;;;;;;;;4952863;28;20184;-60
2021/12/22 05:02:56;;;;;;;0.60;0.60;;;;;;;;;;4953367;28;20175;-60
2021/12/22 05:05:22;;;;;;;0.60;0.60;;;;;;;;;;4953174;28;20198;-60
2021/12/22 05:07:48;;;;;;;0.60;0.60;;;;;;;;;;4953370;28;20257;-60
2021/12/22 05:10:15;;;;;;;0.70;0.70;;;;;;;;;;4951189;28;20275;-60
2021/12/22 05:12:41;;;;;;;0.70;0.70;;;;;;;;;;4953265;28;20168;-60
2021/12/22 05:15:07;;;;;;;0.70;0.70;;;;;;;;;;4951809;28;20587;-59
2021/12/22 05:20:09;;;;;;;0.70;0.70;;;;;;;;;;4952659;28;20782;-58
2021/12/22 05:22:35;;;;;;;0.70;0.70;;;;;;;;;;4952861;28;20604;-61
2021/12/22 05:25:02;;;;;;;0.70;0.70;;;;;;;;;;4953009;28;20192;-60
2021/12/22 05:27:29;;;;;;;0.70;0.70;;;;;;;;;;4952955;28;20474;-60
2021/12/22 05:29:55;;;;;;;0.65;0.65;;;;;;;;;;4953069;28;20211;-60
2021/12/22 05:32:24;;;;;;;0.70;0.70;;;;;;;;;;4952367;28;20178;-60
2021/12/22 05:34:50;;;;;;;0.60;0.60;;;;;;;;;;4981012;23;20280;-57
2021/12/22 05:37:16;;;;;;;0.60;0.60;;;;;;;;;;4976968;28;20655;-58
2021/12/22 05:39:42;;;;;;;0.70;0.70;;;;;;;;;;4976408;28;20414;-56
2021/12/22 05:42:08;;;;;;;0.80;0.80;;;;;;;;;;4975536;28;20186;-58
2021/12/22 05:44:34;;;;;;;0.80;0.80;;;;;;;;;;4976354;28;20781;-58
2021/12/22 05:47:00;;;;;;;0.60;0.60;;;;;;;;;;4976626;28;20201;-57
2021/12/22 05:49:26;;;;;;;0.70;0.70;;;;;;;;;;4976166;28;20185;-58
2021/12/22 05:51:52;;;;;;;0.60;0.60;;;;;;;;;;4975063;28;20474;-58
2021/12/22 05:54:18;;;;;;;0.70;0.70;;;;;;;;;;4975602;28;20429;-58
2021/12/22 05:56:44;;;;;;;0.60;0.60;;;;;;;;;;4975870;28;20202;-59
2021/12/22 05:59:10;;;;;;;0.60;0.60;;;;;;;;;;4976279;28;20665;-57
2021/12/22 06:01:36;;;;;;;0.60;0.60;;;;;;;;;;4974740;28;20520;-59
2021/12/22 06:04:03;;;;;;;0.60;0.60;;;;;;;;;;4975905;28;20857;-57
2021/12/22 06:06:29;;;;;;;0.70;0.70;;;;;;;;;;4975443;28;20466;-59
2021/12/22 06:08:55;;;;;;;0.60;0.60;;;;;;;;;;4975104;28;20221;-59
2021/12/22 06:11:21;;;;;;;0.70;0.70;;;;;;;;;;4974879;28;20225;-59
2021/12/22 06:13:47;;;;;;;0.80;0.80;;;;;;;;;;4975730;28;20721;-58
2021/12/22 06:16:13;;;;;;;0.70;0.70;;;;;;;;;;4972391;28;20301;-59
2021/12/22 06:18:46;;;;;;;0.77;0.77;;;;;;;;;;4975656;28;20417;-57
2021/12/22 06:21:13;;;;;;;0.60;0.60;;;;;;;;;;4974633;28;20179;-59
2021/12/22 06:23:39;;;;;;;0.80;0.80;;;;;;;;;;4975059;28;20186;-57
2021/12/22 06:26:05;;;;;;;0.70;0.70;;;;;;;;;;4975589;28;20206;-56
2021/12/22 06:28:31;;;;;;;0.63;0.63;;;;;;;;;;4974111;28;20210;-59
2021/12/22 06:30:57;;;;;;;0.57;0.57;;;;;;;;;;4974704;28;20221;-59
2021/12/22 06:33:23;;;;;;;0.70;0.70;;;;;;;;;;4975039;28;20216;-58
2021/12/22 06:35:49;;;;;;;0.70;0.70;;;;;;;;;;4975353;28;20465;-59
2021/12/22 06:38:16;;;;;;;0.70;0.70;;;;;;;;;;4974284;28;20209;-58
2021/12/22 06:40:42;;;;;;;0.60;0.60;;;;;;;;;;4977930;28;20217;-59
2021/12/22 06:43:08;;;;;;;0.60;0.60;;;;;;;;;;4974936;28;20182;-59
2021/12/22 06:45:34;;;;;;;0.60;0.60;;;;;;;;;;4973814;28;20578;-60
2021/12/22 06:48:00;;;;;;;0.70;0.70;;;;;;;;;;4972308;28;20175;-58
2021/12/22 06:50:26;;;;;;;0.60;0.60;;;;;;;;;;4972440;28;20401;-60
2021/12/22 06:52:52;;;;;;;0.70;0.70;;;;;;;;;;4973234;28;20269;-56
2021/12/22 06:55:18;;;;;;;0.60;0.60;;;;;;;;;;4974671;28;20197;-59
2021/12/22 06:57:44;;;;;;;0.70;0.70;;;;;;;;;;4973689;28;20693;-58
2021/12/22 07:00:12;;;;;;;0.70;0.70;;;;;;;;;;4973630;28;20906;-58
2021/12/22 07:02:39;;;;;;;0.70;0.70;;;;;;;;;;4974380;28;20432;-56
2021/12/22 07:05:06;;;;;;;0.70;0.70;;;;;;;;;;4974722;28;20195;-58
2021/12/22 07:07:33;;;;;;;0.60;0.60;;;;;;;;;;4973872;28;20578;-57
2021/12/22 07:09:59;;;;;;;0.70;0.70;;;;;;;;;;4974472;28;20241;-59
2021/12/22 07:12:25;;;;;;;0.70;0.70;;;;;;;;;;4973915;28;20595;-58
2021/12/22 07:14:51;;;;;;;0.60;0.60;;;;;;;;;;4973194;28;20452;-59
2021/12/22 07:17:17;;;;;;;0.70;0.70;;;;;;;;;;4973750;28;20186;-58
2021/12/22 07:19:43;;;;;;;0.70;0.70;;;;;;;;;;4971020;28;20430;-60
2021/12/22 07:22:09;;;;;;;0.70;0.70;;;;;;;;;;4973847;28;20182;-59
2021/12/22 07:24:35;;;;;;;0.80;0.80;;;;;;;;;;4974461;28;20414;-59
2021/12/22 07:27:01;;;;;;;0.65;0.65;;;;;;;;;;4974256;28;20347;-58
2021/12/22 07:29:27;;;;;;;0.70;0.70;;;;;;;;;;4974267;28;20181;-59
2021/12/22 07:31:53;;;;;;;0.80;0.80;;;;;;;;;;4973413;28;20551;-57
2021/12/22 07:34:33;;;;;;;0.70;0.70;;;;;;;;;;4974110;28;20179;-59
2021/12/22 07:37:00;;;;;;;0.70;0.70;;;;;;;;;;4973748;28;20479;-59
2021/12/22 07:39:26;;;;;;;0.70;0.70;;;;;;;;;;4972541;28;20188;-60
2021/12/22 07:41:52;;;;;;;0.60;0.60;;;;;;;;;;4971690;28;20194;-58
2021/12/22 07:44:19;;;;;;;0.70;0.70;;;;;;;;;;4974073;28;20259;-58
2021/12/22 07:46:45;;;;;;;0.70;0.70;;;;;;;;;;4973600;28;20210;-59
2021/12/22 07:49:11;;;;;;;0.60;0.60;;;;;;;;;;4974013;28;20662;-60
2021/12/22 07:51:37;;;;;;;0.70;0.70;;;;;;;;;;4972089;28;20174;-59
2021/12/22 07:54:04;;;;;;;0.70;0.70;;;;;;;;;;4978513;28;20424;-55
2021/12/22 07:56:30;;;;;;;0.80;0.80;;;;;;;;;;4972839;28;20207;-56
2021/12/22 07:58:56;;;;;;;0.70;0.70;;;;;;;;;;4973440;28;20185;-55
2021/12/22 08:01:22;;;;;;;0.70;0.70;;;;;;;;;;4973037;28;20410;-57
2021/12/22 08:03:48;;;;;;;0.70;0.70;;;;;;;;;;4973631;28;20490;-55
2021/12/22 08:06:14;;;;;;;0.80;0.80;;;;;;;;;;4972719;28;20368;-58
2021/12/22 08:08:40;;;;;;;0.80;0.80;;;;;;;;;;4973655;28;20182;-57
2021/12/22 08:11:06;;;;;;;0.80;0.80;;;;;;;;;;4973008;28;20206;-59
2021/12/22 08:13:34;;;;;;;0.80;0.80;;;;;;;;;;4973216;28;20268;-57
2021/12/22 08:16:00;;;;;;;0.80;0.80;;;;;;;;;;4973143;28;20579;-58
2021/12/22 08:18:26;;;;;;;0.70;0.70;;;;;;;;;;4973520;28;20175;-55
2021/12/22 08:20:52;;;;;;;0.80;0.80;;;;;;;;;;4972616;28;20488;-58
2021/12/22 08:23:19;;;;;;;0.70;0.70;;;;;;;;;;4973110;28;20183;-59
2021/12/22 08:25:45;;;;;;;0.73;0.73;;;;;;;;;;4973076;28;20573;-55
2021/12/22 08:28:11;;;;;;;0.80;0.80;;;;;;;;;;4973027;28;20203;-57
2021/12/22 08:30:37;;;;;;;0.70;0.70;;;;;;;;;;4972223;28;20178;-58
2021/12/22 08:33:09;;;;;;;0.60;0.60;;;;;;;;;;4972970;28;20260;-59
2021/12/22 08:38:50;;;;;;;0.80;0.80;;;;;;;;;;4971853;28;20218;-60
2021/12/22 08:41:17;;;;;;;0.60;0.60;;;;;;;;;;4974229;28;20263;-58
2021/12/22 08:43:43;;;;;;;0.70;0.70;;;;;;;;;;4969781;28;20205;-60
2021/12/22 08:46:09;;;;;;;0.80;0.80;;;;;;;;;;4969651;28;20221;-56
2021/12/22 08:48:35;;;;;;;0.70;0.70;;;;;;;;;;4971479;28;20910;-60
2021/12/22 08:51:01;;;;;;;0.80;0.80;;;;;;;;;;4970738;28;20175;-61
2021/12/22 08:53:27;;;;;;;0.80;0.80;;;;;;;;;;4970136;28;20407;-59
2021/12/22 08:55:53;;;;;;;0.63;0.63;;;;;;;;;;4973061;28;20431;-60
2021/12/22 08:58:19;;;;;;;0.70;0.70;;;;;;;;;;4972763;28;20953;-58
2021/12/22 09:00:45;;;;;;;0.70;0.70;;;;;;;;;;4971876;28;20186;-59
2021/12/22 09:03:11;;;;;;;0.80;0.80;;;;;;;;;;4972969;28;20411;-60
2021/12/22 09:05:37;;;;;;;0.60;0.60;;;;;;;;;;4972927;28;20433;-60
2021/12/22 09:08:03;;;;;;;0.70;0.70;;;;;;;;;;4972795;28;20174;-58
2021/12/22 09:10:29;;;;;;;0.70;0.70;;;;;;;;;;4975976;28;20413;-60
2021/12/22 09:12:55;;;;;;;0.70;0.70;;;;;;;;;;4976445;28;20191;-60
2021/12/22 09:15:22;;;;;;;0.80;0.80;;;;;;;;;;4976782;28;20423;-61
2021/12/22 09:17:47;;;;;;;0.70;0.70;;;;;;;;;;4976761;28;20191;-58
2021/12/22 09:20:14;;;;;;;0.70;0.70;;;;;;;;;;4972606;28;20238;-60
2021/12/22 09:22:40;;;;;;;0.70;0.70;;;;;;;;;;4976565;28;20774;-60
2021/12/22 09:25:06;;;;;;;0.70;0.70;;;;;;;;;;4976460;28;20219;-58
2021/12/22 09:27:32;;;;;;;0.70;0.70;;;;;;;;;;4976598;28;20690;-59
2021/12/22 09:29:58;;;;;;;0.77;0.77;;;;;;;;;;4976645;28;20207;-58
2021/12/22 09:32:24;;;;;;;0.70;0.70;;;;;;;;;;4975909;28;20942;-60
2021/12/22 09:34:50;;;;;;;0.70;0.70;;;;;;;;;;4976472;28;20850;-61
2021/12/22 09:37:17;;;;;;;0.60;0.60;;;;;;;;;;4976541;28;20176;-59
2021/12/22 09:39:43;;;;;;;0.70;0.70;;;;;;;;;;4975220;28;20190;-60
2021/12/22 09:42:09;;;;;;;0.63;0.63;;;;;;;;;;4975485;28;20642;-60
2021/12/22 09:44:43;;;;;;;0.80;0.80;;;;;;;;;;4976159;28;20418;-61
2021/12/22 09:47:09;;;;;;;0.70;0.70;;;;;;;;;;4974681;28;20262;-58
2021/12/22 09:49:47;;;;;;;0.70;0.70;;;;;;;;;;4976318;28;20318;-59
2021/12/22 09:52:18;;;;;;;0.70;0.70;;;;;;;;;;4975580;28;20260;-61
2021/12/22 09:54:45;;;;;;;0.70;0.70;;;;;;;;;;4976003;28;20202;-58
2021/12/22 09:57:12;;;;;;;0.70;0.70;;;;;;;;;;4976051;28;20646;-61
2021/12/22 09:59:40;;;;;;;0.70;0.70;;;;;;;;;;4976022;28;20201;-61
2021/12/22 10:02:06;;;;;;;0.70;0.70;;;;;;;;;;4975204;28;20224;-58
2021/12/22 10:04:32;;;;;;;0.70;0.70;;;;;;;;;;4975579;28;20180;-60
2021/12/22 10:06:58;;;;;;;0.60;0.60;;;;;;;;;;4974443;28;20465;-61
2021/12/22 10:09:25;;;;;;;0.60;0.60;;;;;;;;;;4975751;28;20259;-60
2021/12/22 10:11:51;;;;;;;0.70;0.70;;;;;;;;;;4974963;28;20774;-59
2021/12/22 10:14:22;;;;;;;0.60;0.60;;;;;;;;;;4975923;28;20199;-60
2021/12/22 10:16:49;;;;;;;0.70;0.70;;;;;;;;;;4975562;28;20207;-58
2021/12/22 10:19:15;;;;;;;0.65;0.65;;;;;;;;;;4975600;28;20186;-60
2021/12/22 10:21:55;;;;;;;0.60;0.60;;;;;;;;;;4974047;28;20714;-59
2021/12/22 10:24:33;;;;;;;0.70;0.70;;;;;;;;;;4976129;28;20932;-58
2021/12/22 10:27:04;;;;;;;0.60;0.60;;;;;;;;;;4975161;28;20267;-60
2021/12/22 10:29:31;;;;;;;0.60;0.60;;;;;;;;;;4975499;28;20205;-59
2021/12/22 10:32:05;;;;;;;0.60;0.60;;;;;;;;;;4974793;28;20179;-60
2021/12/22 10:34:31;;;;;;;0.60;0.60;;;;;;;;;;4974981;28;20195;-61
2021/12/22 10:36:57;;;;;;;0.50;0.50;;;;;;;;;;4976265;28;20606;-59
2021/12/22 10:39:30;;;;;;;0.70;0.70;;;;;;;;;;4976876;28;20439;-59
2021/12/22 10:42:03;;;;;;;0.70;0.70;;;;;;;;;;4974409;28;20505;-56
2021/12/22 10:44:36;;;;;;;0.70;0.70;;;;;;;;;;4975340;28;20186;-61
2021/12/22 10:47:19;;;;;;;0.60;0.60;;;;;;;;;;4974861;28;20199;-58
2021/12/22 10:49:58;;;;;;;0.80;0.80;;;;;;;;;;4975388;28;20539;-60
2021/12/22 10:52:25;;;;;;;0.60;0.60;;;;;;;;;;4974031;28;20181;-59
2021/12/22 10:54:51;;;;;;;0.63;0.63;;;;;;;;;;4973978;28;20199;-60
2021/12/22 10:57:17;;;;;;;0.70;0.70;;;;;;;;;;4975225;28;20186;-58
2021/12/22 10:59:45;;;;;;;0.70;0.70;;;;;;;;;;4974944;28;20183;-61
2021/12/22 11:02:12;;;;;;;0.70;0.70;;;;;;;;;;4974379;28;20419;-59
2021/12/22 11:04:43;;;;;;;0.70;0.70;;;;;;;;;;4975046;28;20184;-59
2021/12/22 11:07:12;;;;;;;0.60;0.60;;;;;;;;;;4974738;28;20281;-59
2021/12/22 11:09:39;;;;;;;0.60;0.60;;;;;;;;;;4974824;28;20178;-57
2021/12/22 11:12:06;;;;;;;0.60;0.60;;;;;;;;;;4974153;28;20185;-58
2021/12/22 11:14:33;;;;;;;0.68;0.68;;;;;;;;;;4975013;28;20257;-60
2021/12/22 11:17:10;;;;;;;0.60;0.60;;;;;;;;;;4975240;28;20265;-61
2021/12/22 11:19:39;;;;;;;0.70;0.70;;;;;;;;;;4975009;28;20214;-60
2021/12/22 11:22:12;;;;;;;0.60;0.60;;;;;;;;;;4973846;28;20182;-61
2021/12/22 11:24:41;;;;;;;0.60;0.60;;;;;;;;;;4974578;28;20182;-61
2021/12/22 11:27:08;;;;;;;0.70;0.70;;;;;;;;;;4974403;28;20298;-61
2021/12/22 11:29:35;;;;;;;0.60;0.60;;;;;;;;;;4974186;28;20190;-61
2021/12/22 11:32:05;;;;;;;0.70;0.70;;;;;;;;;;4972672;28;20199;-61
2021/12/22 11:34:35;;;;;;;0.60;0.60;;;;;;;;;;4974198;28;20210;-61
2021/12/22 11:37:01;;;;;;;0.70;0.70;;;;;;;;;;4997019;22;20235;-61
2021/12/22 11:39:28;;;;;;;0.60;0.60;;;;;;;;;;4973608;28;20215;-60
2021/12/22 11:41:56;;;;;;;0.60;0.60;;;;;;;;;;4973509;28;20209;-63
2021/12/22 11:44:23;;;;;;;0.60;0.60;;;;;;;;;;4974035;28;20716;-63
2021/12/22 11:46:50;;;;;;;0.60;0.60;;;;;;;;;;4972679;28;20316;-63
2021/12/22 11:49:20;;;;;;;0.50;0.50;;;;;;;;;;4972552;28;20551;-65
2021/12/22 11:51:46;;;;;;;0.55;0.55;;;;;;;;;;4971593;28;20237;-64
2021/12/22 11:54:12;;;;;;;0.50;0.50;;;;;;;;;;4973663;28;20806;-64
2021/12/22 11:56:42;;;;;;;0.50;0.50;;;;;;;;;;4973613;28;20197;-63
2021/12/22 11:59:25;;;;;;;0.50;0.50;;;;;;;;;;4972434;28;20176;-64
2021/12/22 12:02:10;;;;;;;0.50;0.50;;;;;;;;;;4973025;28;20254;-64
2021/12/22 12:04:36;;;;;;;0.60;0.60;;;;;;;;;;4973684;28;20189;-64
2021/12/22 12:07:01;;;;;;;0.60;0.60;;;;;;;;;;4973086;28;20298;-64
2021/12/22 12:09:30;;;;;;;0.50;0.50;;;;;;;;;;4973500;28;20270;-63
2021/12/22 12:11:57;;;;;;;0.50;0.50;;;;;;;;;;4972352;28;20438;-65
2021/12/22 12:14:35;;;;;;;0.50;0.50;;;;;;;;;;4972083;28;20223;-65
2021/12/22 12:23:15;;;;;;;0.50;0.50;;;;;;;;;;4973236;28;20210;-64
2021/12/22 12:25:41;;;;;;;0.50;0.50;;;;;;;;;;4972978;28;20357;-63
2021/12/22 12:28:18;;;;;;;0.50;0.50;;;;;;;;;;4972081;28;20661;-64
2021/12/22 12:30:51;;;;;;;0.50;0.50;;;;;;;;;;4972311;28;20421;-64
2021/12/22 12:33:21;;;;;;;0.50;0.50;;;;;;;;;;4973081;28;20265;-64
2021/12/22 12:35:58;;;;;;;0.40;0.40;;;;;;;;;;4972902;28;20218;-64
2021/12/22 12:38:27;;;;;;;0.50;0.50;;;;;;;;;;4972998;28;20174;-65
2021/12/22 12:40:57;;;;;;;0.50;0.50;;;;;;;;;;4972342;28;20265;-63
2021/12/22 12:46:29;;;;;;;0.50;0.50;;;;;;;;;;4973386;28;20207;-64
2021/12/22 12:49:04;;;;;;;0.50;0.50;;;;;;;;;;4973765;28;20183;-65
2021/12/22 12:51:32;;;;;;;0.57;0.57;;;;;;;;;;4972642;28;20237;-63
2021/12/22 12:54:02;;;;;;;0.47;0.47;;;;;;;;;;4972943;28;20175;-67
2021/12/22 12:56:33;;;;;;;0.50;0.50;;;;;;;;;;4972546;28;20226;-63
2021/12/22 12:59:00;;;;;;;0.50;0.50;;;;;;;;;;4972835;28;20266;-64
2021/12/22 13:01:50;;;;;;;0.50;0.50;;;;;;;;;;4972260;28;20175;-64
2021/12/22 13:04:26;;;;;;;0.50;0.50;;;;;;;;;;4972013;28;20183;-62
2021/12/22 13:07:01;;;;;;;0.50;0.50;;;;;;;;;;4973880;28;20297;-64
2021/12/22 13:09:37;;;;;;;0.50;0.50;;;;;;;;;;4973264;28;20171;-63
2021/12/22 13:17:20;;;;;;;0.50;0.50;;;;;;;;;;4954007;29;20215;-62
2021/12/22 13:19:52;;;;;;;0.50;0.50;;;;;;;;;;4952497;29;20270;-62
2021/12/22 13:22:28;;;;;;;0.60;0.60;;;;;;;;;;4952719;28;20174;-65
2021/12/22 13:25:12;;;;;;;0.60;0.60;;;;;;;;;;4954142;28;20277;-61
2021/12/22 13:27:39;;;;;;;0.60;0.60;;;;;;;;;;4953409;28;20628;-64
2021/12/22 13:30:11;;;;;;;0.60;0.60;;;;;;;;;;4953440;28;20236;-63
2021/12/22 13:32:54;;;;;;;0.60;0.60;;;;;;;;;;4953497;28;20187;-63
2021/12/22 13:35:46;;;;;;;0.60;0.60;;;;;;;;;;4953422;28;20670;-64
2021/12/22 13:38:23;;;;;;;0.50;0.50;;;;;;;;;;4952059;28;20673;-64
2021/12/22 13:40:59;;;;;;;0.60;0.60;;;;;;;;;;4952653;28;20608;-64
2021/12/22 13:43:26;;;;;;;0.60;0.60;;;;;;;;;;4953416;28;20574;-62
2021/12/22 13:45:54;;;;;;;0.50;0.50;;;;;;;;;;4953042;28;20217;-64
2021/12/22 13:48:21;;;;;;;0.60;0.60;;;;;;;;;;4952843;28;20173;-64
2021/12/22 13:50:48;;;;;;;0.60;0.60;;;;;;;;;;4952329;28;20183;-65
2021/12/22 13:53:15;;;;;;;0.60;0.60;;;;;;;;;;4952284;29;20538;-64
2021/12/22 13:55:41;;;;;;;0.60;0.60;;;;;;;;;;4953965;28;20220;-64
2021/12/22 13:58:29;;;;;;;0.50;0.50;;;;;;;;;;4956527;28;20176;-64
2021/12/22 14:01:24;;;;;;;0.50;0.50;;;;;;;;;;4955930;28;20180;-64
2021/12/22 14:04:02;;;;;;;0.50;0.50;;;;;;;;;;4956060;28;20210;-63
2021/12/22 14:06:31;;;;;;;0.50;0.50;;;;;;;;;;4956264;28;20212;-65
2021/12/22 14:09:05;;;;;;;0.50;0.50;;;;;;;;;;4956581;28;20184;-63
2021/12/22 14:11:42;;;;;;;0.50;0.50;;;;;;;;;;4955653;28;20178;-64
2021/12/22 14:14:25;;;;;;;0.50;0.50;;;;;;;;;;4956503;28;20611;-64
2021/12/22 14:17:06;;;;;;;0.65;0.65;;;;;;;;;;4956428;28;20563;-64
2021/12/22 14:19:33;;;;;;;0.55;0.55;;;;;;;;;;4956447;28;20179;-65
2021/12/22 14:22:10;;;;;;;0.60;0.60;;;;;;;;;;4955466;28;20180;-63
2021/12/22 14:24:40;;;;;;;0.50;0.50;;;;;;;;;;4956806;28;20570;-65
2021/12/22 14:27:07;;;;;;;0.60;0.60;;;;;;;;;;4955037;29;20277;-64
2021/12/22 14:29:33;;;;;;;0.50;0.50;;;;;;;;;;4956073;28;20540;-65
2021/12/22 14:32:04;;;;;;;0.52;0.52;;;;;;;;;;4955427;28;20179;-64
2021/12/22 14:34:30;;;;;;;0.70;0.70;;;;;;;;;;4955895;28;20171;-65
2021/12/22 14:36:57;;;;;;;0.60;0.60;;;;;;;;;;4955695;28;20266;-64
2021/12/22 14:39:39;;;;;;;0.60;0.60;;;;;;;;;;4954174;28;20675;-65
2021/12/22 14:42:21;;;;;;;0.50;0.50;;;;;;;;;;4955055;28;20172;-64
2021/12/22 14:44:47;;;;;;;0.60;0.60;;;;;;;;;;4955733;28;20168;-64
2021/12/22 14:47:22;;;;;;;0.70;0.70;;;;;;;;;;4955621;28;20262;-65
2021/12/22 14:49:50;;;;;;;0.55;0.55;;;;;;;;;;4952869;28;20192;-63
2021/12/22 14:52:19;;;;;;;0.60;0.60;;;;;;;;;;4951833;29;20176;-61
2021/12/22 14:54:45;;;;;;;0.60;0.60;;;;;;;;;;4956756;28;20172;-62
2021/12/22 14:57:21;;;;;;;0.60;0.60;;;;;;;;;;4955067;28;20262;-63
2021/12/22 14:59:47;;;;;;;0.60;0.60;;;;;;;;;;4955341;28;20264;-62
2021/12/22 15:02:13;;;;;;;0.60;0.60;;;;;;;;;;4954615;28;20267;-62
2021/12/22 15:04:39;;;;;;;0.60;0.60;;;;;;;;;;4955369;28;20543;-62
2021/12/22 15:07:05;;;;;;;0.57;0.57;;;;;;;;;;4953005;28;20225;-62
2021/12/22 15:09:31;;;;;;;0.60;0.60;;;;;;;;;;4954016;28;20462;-64
2021/12/22 15:11:57;;;;;;;0.60;0.60;;;;;;;;;;4954381;28;20431;-61
2021/12/22 15:14:23;;;;;;;0.70;0.70;;;;;;;;;;4955207;28;20419;-63
2021/12/22 15:16:48;;;;;;;0.60;0.60;;;;;;;;;;4954286;28;20526;-63
2021/12/22 15:19:15;;;;;;;0.60;0.60;;;;;;;;;;4950583;28;20463;-63
2021/12/22 15:21:41;;;;;;;0.60;0.60;;;;;;;;;;4952966;29;20478;-62
2021/12/22 15:24:07;;;;;;;0.60;0.60;;;;;;;;;;4953364;28;20196;-60
2021/12/22 15:26:33;;;;;;;0.50;0.50;;;;;;;;;;4954195;28;20470;-62